Terminal Aerodrome Forecast
Issued by NWS

Home | Current Version | Previous Version | Text Only | Print | Product List | Glossary On
Versions: 1 2 3 4 5 6 7 8 9 10 11 12 13 14 15
000
FTUS43 KAPX 122326
TAFPLN
TAF
KPLN 122326Z 1300/1324 34009KT P6SM BKN035
     FM130200 35009KT P6SM SCT030
     FM130500 35007KT P6SM BKN020
     FM130600 35006KT P6SM BKN020
     FM130800 01005KT P6SM BKN100
     FM131400 07006KT P6SM BKN120
     FM132000 06007KT P6SM BKN025
     FM132300 02006KT P6SM BKN150=

USA.gov is the U.S. government's official web portal to all federal, state and local government web resources and services.